Airfield :
LOGIN :

Register | Disclaimer

   EN    FR    IT 

 










Legend :    VFR   Marginal VFR   IFR   Intensive IFR   Very Intensive IFR
Visi :
Ceiling :
>= 8 km
>= 3000ft
5 to 8 km
1000 to 3000 ft
1500m to 5 km
500 to 1000 ft
800 to 1500m
200 to 500 ft
< 800m
< 200 ft
Symbols :   Thunderstorms  Fog  Heavy snow  Heavy precipitations  Wind > 20 kt
SIGMETs :     Misc.  Thunderstorms  Icing  Turbulence  Mountain Waves  Volcanic Ashes







- Airport Elevation : 32 ft
- IATA code : LKZ


EGUL - RAF Lakenheath

CURRENT METAR :
  • 192156Z AUTO 22008KT 9999 CLR 20/15 A3014 RMK AO2 SLP209 T01960150 $

EXPIRED METARs :
  • 192056Z AUTO 24009KT 9999 SCT050 20/16 A3014 RMK AO2 SLP209 T02040158 53004 $
  • 191956Z AUTO 24010KT 9999 SCT060 22/16 A3012 RMK AO2 SLP203 T02180156 $

TAF AMD TAF EGUL
Valid from the 19 at 21:00 until the 21 at 02:00 UTC


192142Z 1921/2102 23012KT 9999 FEW020 OVC050 QNH3011INS
BECMG 2001/2002 23009KT 9999 BKN015 QNH3009INS
BECMG 2007/2008 24010G15KT 9999 BKN020 QNH3005INS
TEMPO 2010/2018 25012G20KT
BECMG 2018/2019 29012KT 9999 BKN025 QNH3007INS TX24/2015Z TN16/2004Z LAST NO AMDS AFT 1921 NEXT 2004
No reported NOTAMs for that airfield.



MET'MAP, your aeronautical weather chart ! - Copyright ORBIFLY December 2007 - Disclaimer

ORBIFLY MET'MAP TEAM :

Programming & Development : Alexandra Zaïnal
Concept & Development : Baudouin d'Aumeries
Co-Development & Prog : Marc-Olivier Méhu
Technical & hardware support : Manuel Goepfert

Contact : metmap@orbifly.com




SOURCES & CREDITS :

   NOAA